sensor_id;sensor_type;location;lat;lon;timestamp;P1;durP1;ratioP1;P2;durP2;ratioP2
36799;SDS011;22752;51.960;5.886;2022-08-21T00:01:04;6.38;;;2.80;;
36799;SDS011;22752;51.960;5.886;2022-08-21T00:03:33;3.53;;;2.53;;
36799;SDS011;22752;51.960;5.886;2022-08-21T00:05:59;4.50;;;2.67;;
36799;SDS011;22752;51.960;5.886;2022-08-21T00:08:25;7.30;;;2.78;;
36799;SDS011;22752;51.960;5.886;2022-08-21T00:10:51;9.00;;;3.30;;
36799;SDS011;22752;51.960;5.886;2022-08-21T00:13:17;4.45;;;2.88;;
36799;SDS011;22752;51.960;5.886;2022-08-21T00:15:45;4.13;;;2.53;;
36799;SDS011;22752;51.960;5.886;2022-08-21T00:18:12;4.32;;;2.50;;
36799;SDS011;22752;51.960;5.886;2022-08-21T00:20:39;3.05;;;2.65;;
36799;SDS011;22752;51.960;5.886;2022-08-21T00:23:05;5.88;;;3.42;;
36799;SDS011;22752;51.960;5.886;2022-08-21T00:25:32;4.70;;;2.35;;
36799;SDS011;22752;51.960;5.886;2022-08-21T00:27:57;6.78;;;3.10;;
36799;SDS011;22752;51.960;5.886;2022-08-21T00:30:24;5.13;;;2.70;;
36799;SDS011;22752;51.960;5.886;2022-08-21T00:32:51;4.88;;;2.95;;
36799;SDS011;22752;51.960;5.886;2022-08-21T00:35:19;4.35;;;3.00;;
36799;SDS011;22752;51.960;5.886;2022-08-21T00:37:48;5.47;;;2.90;;
36799;SDS011;22752;51.960;5.886;2022-08-21T00:40:15;4.03;;;3.05;;
36799;SDS011;22752;51.960;5.886;2022-08-21T00:42:43;5.30;;;2.92;;
36799;SDS011;22752;51.960;5.886;2022-08-21T00:45:10;4.45;;;2.75;;
36799;SDS011;22752;51.960;5.886;2022-08-21T00:47:36;4.20;;;2.83;;
36799;SDS011;22752;51.960;5.886;2022-08-21T00:50:04;4.05;;;3.15;;
36799;SDS011;22752;51.960;5.886;2022-08-21T00:52:32;5.68;;;3.00;;
36799;SDS011;22752;51.960;5.886;2022-08-21T00:55:00;5.30;;;3.40;;
36799;SDS011;22752;51.960;5.886;2022-08-21T00:57:30;7.57;;;3.85;;
36799;SDS011;22752;51.960;5.886;2022-08-21T01:00:04;6.53;;;3.65;;
36799;SDS011;22752;51.960;5.886;2022-08-21T01:02:33;4.70;;;3.25;;
36799;SDS011;22752;51.960;5.886;2022-08-21T01:04:58;5.05;;;3.10;;
36799;SDS011;22752;51.960;5.886;2022-08-21T01:07:24;5.15;;;3.20;;
36799;SDS011;22752;51.960;5.886;2022-08-21T01:09:50;5.63;;;3.25;;
36799;SDS011;22752;51.960;5.886;2022-08-21T01:12:16;3.80;;;3.25;;
36799;SDS011;22752;51.960;5.886;2022-08-21T01:14:42;4.78;;;3.05;;
36799;SDS011;22752;51.960;5.886;2022-08-21T01:17:10;4.70;;;3.20;;
36799;SDS011;22752;51.960;5.886;2022-08-21T01:19:39;5.00;;;3.50;;
36799;SDS011;22752;51.960;5.886;2022-08-21T01:22:05;5.53;;;3.63;;
36799;SDS011;22752;51.960;5.886;2022-08-21T01:24:31;7.25;;;3.35;;
36799;SDS011;22752;51.960;5.886;2022-08-21T01:26:57;4.55;;;3.30;;
36799;SDS011;22752;51.960;5.886;2022-08-21T01:32:07;4.82;;;3.40;;
36799;SDS011;22752;51.960;5.886;2022-08-21T01:34:41;4.78;;;3.22;;
36799;SDS011;22752;51.960;5.886;2022-08-21T01:37:08;5.35;;;3.30;;
36799;SDS011;22752;51.960;5.886;2022-08-21T01:39:35;6.15;;;3.33;;
36799;SDS011;22752;51.960;5.886;2022-08-21T01:42:01;6.68;;;3.53;;
36799;SDS011;22752;51.960;5.886;2022-08-21T01:44:28;5.15;;;3.30;;
36799;SDS011;22752;51.960;5.886;2022-08-21T01:46:53;6.13;;;3.28;;
36799;SDS011;22752;51.960;5.886;2022-08-21T01:49:20;5.53;;;3.30;;
36799;SDS011;22752;51.960;5.886;2022-08-21T01:51:46;4.40;;;3.30;;
36799;SDS011;22752;51.960;5.886;2022-08-21T01:54:12;6.43;;;3.38;;
36799;SDS011;22752;51.960;5.886;2022-08-21T01:56:39;4.68;;;3.38;;
36799;SDS011;22752;51.960;5.886;2022-08-21T01:59:08;5.28;;;3.42;;
36799;SDS011;22752;51.960;5.886;2022-08-21T02:01:34;4.90;;;3.72;;
36799;SDS011;22752;51.960;5.886;2022-08-21T02:04:01;4.38;;;3.38;;
36799;SDS011;22752;51.960;5.886;2022-08-21T02:06:27;6.45;;;3.63;;
36799;SDS011;22752;51.960;5.886;2022-08-21T02:08:53;6.20;;;3.30;;
36799;SDS011;22752;51.960;5.886;2022-08-21T02:11:19;4.63;;;3.08;;
36799;SDS011;22752;51.960;5.886;2022-08-21T02:13:45;5.60;;;3.22;;
36799;SDS011;22752;51.960;5.886;2022-08-21T02:16:11;3.90;;;2.88;;
36799;SDS011;22752;51.960;5.886;2022-08-21T02:18:38;3.97;;;3.00;;
36799;SDS011;22752;51.960;5.886;2022-08-21T02:21:04;4.30;;;3.35;;
36799;SDS011;22752;51.960;5.886;2022-08-21T02:23:30;4.50;;;2.75;;
36799;SDS011;22752;51.960;5.886;2022-08-21T02:25:57;4.38;;;3.03;;
36799;SDS011;22752;51.960;5.886;2022-08-21T02:28:24;5.82;;;3.55;;
36799;SDS011;22752;51.960;5.886;2022-08-21T02:30:51;6.22;;;3.10;;
36799;SDS011;22752;51.960;5.886;2022-08-21T02:33:18;4.95;;;3.60;;
36799;SDS011;22752;51.960;5.886;2022-08-21T02:35:44;6.47;;;3.08;;
36799;SDS011;22752;51.960;5.886;2022-08-21T02:38:13;5.05;;;3.53;;
36799;SDS011;22752;51.960;5.886;2022-08-21T02:40:42;6.22;;;3.45;;
36799;SDS011;22752;51.960;5.886;2022-08-21T02:43:10;5.90;;;3.20;;
36799;SDS011;22752;51.960;5.886;2022-08-21T02:45:36;4.07;;;2.95;;
36799;SDS011;22752;51.960;5.886;2022-08-21T02:48:04;3.90;;;3.13;;
36799;SDS011;22752;51.960;5.886;2022-08-21T02:50:36;3.72;;;2.97;;
36799;SDS011;22752;51.960;5.886;2022-08-21T02:53:04;4.47;;;2.88;;
36799;SDS011;22752;51.960;5.886;2022-08-21T02:55:32;6.07;;;3.55;;
36799;SDS011;22752;51.960;5.886;2022-08-21T02:58:00;5.15;;;2.90;;
36799;SDS011;22752;51.960;5.886;2022-08-21T03:00:27;5.25;;;3.55;;
36799;SDS011;22752;51.960;5.886;2022-08-21T03:02:54;3.85;;;3.17;;
36799;SDS011;22752;51.960;5.886;2022-08-21T03:05:21;4.28;;;3.60;;
36799;SDS011;22752;51.960;5.886;2022-08-21T03:07:47;6.15;;;3.50;;
36799;SDS011;22752;51.960;5.886;2022-08-21T03:10:14;4.72;;;3.33;;
36799;SDS011;22752;51.960;5.886;2022-08-21T03:12:41;5.63;;;3.78;;
36799;SDS011;22752;51.960;5.886;2022-08-21T03:15:08;6.00;;;3.40;;
36799;SDS011;22752;51.960;5.886;2022-08-21T03:17:36;4.72;;;3.60;;
36799;SDS011;22752;51.960;5.886;2022-08-21T03:20:03;5.60;;;3.28;;
36799;SDS011;22752;51.960;5.886;2022-08-21T03:22:30;4.57;;;3.38;;
36799;SDS011;22752;51.960;5.886;2022-08-21T03:24:57;5.45;;;3.53;;
36799;SDS011;22752;51.960;5.886;2022-08-21T03:27:23;5.57;;;3.35;;
36799;SDS011;22752;51.960;5.886;2022-08-21T03:29:49;5.40;;;4.32;;
36799;SDS011;22752;51.960;5.886;2022-08-21T03:32:15;7.40;;;4.22;;
36799;SDS011;22752;51.960;5.886;2022-08-21T03:34:40;4.57;;;3.80;;
36799;SDS011;22752;51.960;5.886;2022-08-21T03:37:07;5.40;;;4.60;;
36799;SDS011;22752;51.960;5.886;2022-08-21T03:39:33;10.10;;;4.28;;
36799;SDS011;22752;51.960;5.886;2022-08-21T03:41:59;5.50;;;4.20;;
36799;SDS011;22752;51.960;5.886;2022-08-21T03:44:26;4.40;;;3.92;;
36799;SDS011;22752;51.960;5.886;2022-08-21T03:46:54;5.28;;;4.40;;
36799;SDS011;22752;51.960;5.886;2022-08-21T03:49:20;5.07;;;3.63;;
36799;SDS011;22752;51.960;5.886;2022-08-21T03:51:46;4.53;;;3.55;;
36799;SDS011;22752;51.960;5.886;2022-08-21T03:54:11;6.60;;;4.53;;
36799;SDS011;22752;51.960;5.886;2022-08-21T03:56:37;4.45;;;3.83;;
36799;SDS011;22752;51.960;5.886;2022-08-21T03:59:04;4.97;;;3.30;;
36799;SDS011;22752;51.960;5.886;2022-08-21T04:01:30;4.05;;;3.40;;
36799;SDS011;22752;51.960;5.886;2022-08-21T04:03:56;4.95;;;3.53;;
36799;SDS011;22752;51.960;5.886;2022-08-21T04:06:21;5.50;;;3.60;;
36799;SDS011;22752;51.960;5.886;2022-08-21T04:08:47;4.45;;;4.05;;
36799;SDS011;22752;51.960;5.886;2022-08-21T04:11:13;4.68;;;3.42;;
36799;SDS011;22752;51.960;5.886;2022-08-21T04:13:39;5.03;;;3.50;;
36799;SDS011;22752;51.960;5.886;2022-08-21T04:16:05;7.10;;;4.13;;
36799;SDS011;22752;51.960;5.886;2022-08-21T04:18:32;5.68;;;4.07;;
36799;SDS011;22752;51.960;5.886;2022-08-21T04:20:57;5.45;;;3.55;;
36799;SDS011;22752;51.960;5.886;2022-08-21T04:23:25;4.95;;;4.00;;
36799;SDS011;22752;51.960;5.886;2022-08-21T04:25:52;7.95;;;4.82;;
36799;SDS011;22752;51.960;5.886;2022-08-21T04:28:19;5.53;;;4.35;;
36799;SDS011;22752;51.960;5.886;2022-08-21T04:30:45;6.78;;;4.75;;
36799;SDS011;22752;51.960;5.886;2022-08-21T04:33:11;8.20;;;4.60;;
36799;SDS011;22752;51.960;5.886;2022-08-21T04:35:36;7.03;;;4.40;;
36799;SDS011;22752;51.960;5.886;2022-08-21T04:38:02;8.52;;;4.65;;
36799;SDS011;22752;51.960;5.886;2022-08-21T04:40:28;7.68;;;4.20;;
36799;SDS011;22752;51.960;5.886;2022-08-21T04:42:55;5.05;;;3.92;;
36799;SDS011;22752;51.960;5.886;2022-08-21T04:47:52;5.53;;;4.78;;
36799;SDS011;22752;51.960;5.886;2022-08-21T04:50:20;5.57;;;4.55;;
36799;SDS011;22752;51.960;5.886;2022-08-21T04:52:49;6.30;;;4.40;;
36799;SDS011;22752;51.960;5.886;2022-08-21T04:55:16;6.18;;;4.57;;
36799;SDS011;22752;51.960;5.886;2022-08-21T04:57:42;6.25;;;4.43;;
36799;SDS011;22752;51.960;5.886;2022-08-21T05:00:08;5.35;;;4.13;;
36799;SDS011;22752;51.960;5.886;2022-08-21T05:02:35;6.35;;;4.50;;
36799;SDS011;22752;51.960;5.886;2022-08-21T05:05:02;6.47;;;4.70;;
36799;SDS011;22752;51.960;5.886;2022-08-21T05:07:29;8.23;;;5.38;;
36799;SDS011;22752;51.960;5.886;2022-08-21T05:09:56;5.72;;;4.57;;
36799;SDS011;22752;51.960;5.886;2022-08-21T05:12:23;8.02;;;4.97;;
36799;SDS011;22752;51.960;5.886;2022-08-21T05:14:49;6.57;;;4.72;;
36799;SDS011;22752;51.960;5.886;2022-08-21T05:17:15;7.32;;;4.60;;
36799;SDS011;22752;51.960;5.886;2022-08-21T05:19:41;5.72;;;4.78;;
36799;SDS011;22752;51.960;5.886;2022-08-21T05:22:07;6.38;;;5.20;;
36799;SDS011;22752;51.960;5.886;2022-08-21T05:24:34;5.32;;;4.82;;
36799;SDS011;22752;51.960;5.886;2022-08-21T05:27:00;7.25;;;5.13;;
36799;SDS011;22752;51.960;5.886;2022-08-21T05:29:25;6.60;;;4.72;;
36799;SDS011;22752;51.960;5.886;2022-08-21T05:31:52;6.75;;;4.75;;
36799;SDS011;22752;51.960;5.886;2022-08-21T05:34:18;8.20;;;4.70;;
36799;SDS011;22752;51.960;5.886;2022-08-21T05:36:46;6.13;;;4.88;;
36799;SDS011;22752;51.960;5.886;2022-08-21T05:39:12;4.80;;;4.28;;
36799;SDS011;22752;51.960;5.886;2022-08-21T05:41:38;14.38;;;4.72;;
36799;SDS011;22752;51.960;5.886;2022-08-21T05:44:04;5.97;;;4.88;;
36799;SDS011;22752;51.960;5.886;2022-08-21T05:46:29;6.90;;;4.97;;
36799;SDS011;22752;51.960;5.886;2022-08-21T05:48:55;9.40;;;6.18;;
36799;SDS011;22752;51.960;5.886;2022-08-21T05:51:21;6.38;;;5.68;;
36799;SDS011;22752;51.960;5.886;2022-08-21T05:53:47;8.27;;;5.32;;
36799;SDS011;22752;51.960;5.886;2022-08-21T05:56:13;6.88;;;5.30;;
36799;SDS011;22752;51.960;5.886;2022-08-21T05:58:39;6.63;;;5.28;;
36799;SDS011;22752;51.960;5.886;2022-08-21T06:01:05;7.97;;;6.18;;
36799;SDS011;22752;51.960;5.886;2022-08-21T06:03:33;11.20;;;8.48;;
36799;SDS011;22752;51.960;5.886;2022-08-21T06:06:01;12.77;;;10.05;;
36799;SDS011;22752;51.960;5.886;2022-08-21T06:08:27;16.63;;;9.65;;
36799;SDS011;22752;51.960;5.886;2022-08-21T06:10:53;9.63;;;6.95;;
36799;SDS011;22752;51.960;5.886;2022-08-21T06:13:20;14.35;;;8.88;;
36799;SDS011;22752;51.960;5.886;2022-08-21T06:15:47;12.70;;;7.90;;
36799;SDS011;22752;51.960;5.886;2022-08-21T06:18:13;11.18;;;7.60;;
36799;SDS011;22752;51.960;5.886;2022-08-21T06:20:39;12.95;;;7.35;;
36799;SDS011;22752;51.960;5.886;2022-08-21T06:23:05;10.88;;;6.03;;
36799;SDS011;22752;51.960;5.886;2022-08-21T06:25:31;11.13;;;5.72;;
36799;SDS011;22752;51.960;5.886;2022-08-21T06:28:07;12.77;;;6.30;;
36799;SDS011;22752;51.960;5.886;2022-08-21T06:30:34;8.68;;;5.20;;
36799;SDS011;22752;51.960;5.886;2022-08-21T06:33:01;13.73;;;6.05;;
36799;SDS011;22752;51.960;5.886;2022-08-21T06:35:27;11.10;;;5.70;;
36799;SDS011;22752;51.960;5.886;2022-08-21T06:37:54;9.65;;;5.53;;
36799;SDS011;22752;51.960;5.886;2022-08-21T06:40:20;9.77;;;5.35;;
36799;SDS011;22752;51.960;5.886;2022-08-21T06:42:46;12.32;;;5.07;;
36799;SDS011;22752;51.960;5.886;2022-08-21T06:45:12;13.02;;;5.60;;
36799;SDS011;22752;51.960;5.886;2022-08-21T06:47:38;13.27;;;5.38;;
36799;SDS011;22752;51.960;5.886;2022-08-21T06:50:04;15.20;;;5.60;;
36799;SDS011;22752;51.960;5.886;2022-08-21T06:52:32;10.70;;;4.72;;
36799;SDS011;22752;51.960;5.886;2022-08-21T06:54:59;10.75;;;4.95;;
36799;SDS011;22752;51.960;5.886;2022-08-21T06:57:25;11.52;;;4.90;;
36799;SDS011;22752;51.960;5.886;2022-08-21T06:59:51;10.35;;;4.68;;
36799;SDS011;22752;51.960;5.886;2022-08-21T07:02:19;13.73;;;4.60;;
36799;SDS011;22752;51.960;5.886;2022-08-21T07:04:45;10.10;;;4.53;;
36799;SDS011;22752;51.960;5.886;2022-08-21T07:07:10;12.13;;;5.10;;
36799;SDS011;22752;51.960;5.886;2022-08-21T07:09:36;13.40;;;5.15;;
36799;SDS011;22752;51.960;5.886;2022-08-21T07:12:02;9.20;;;3.85;;
36799;SDS011;22752;51.960;5.886;2022-08-21T07:14:28;12.18;;;5.00;;
36799;SDS011;22752;51.960;5.886;2022-08-21T07:16:54;10.23;;;4.10;;
36799;SDS011;22752;51.960;5.886;2022-08-21T07:19:19;10.48;;;4.70;;
36799;SDS011;22752;51.960;5.886;2022-08-21T07:21:48;13.07;;;4.72;;
36799;SDS011;22752;51.960;5.886;2022-08-21T07:24:14;9.88;;;4.70;;
36799;SDS011;22752;51.960;5.886;2022-08-21T07:26:39;11.80;;;3.67;;
36799;SDS011;22752;51.960;5.886;2022-08-21T07:29:05;10.85;;;4.45;;
36799;SDS011;22752;51.960;5.886;2022-08-21T07:31:31;10.85;;;4.63;;
36799;SDS011;22752;51.960;5.886;2022-08-21T07:33:57;10.27;;;5.03;;
36799;SDS011;22752;51.960;5.886;2022-08-21T07:36:23;16.25;;;5.15;;
36799;SDS011;22752;51.960;5.886;2022-08-21T07:38:48;11.07;;;4.35;;
36799;SDS011;22752;51.960;5.886;2022-08-21T07:41:15;11.93;;;4.43;;
36799;SDS011;22752;51.960;5.886;2022-08-21T07:43:44;11.68;;;4.90;;
36799;SDS011;22752;51.960;5.886;2022-08-21T07:46:10;21.63;;;5.43;;
36799;SDS011;22752;51.960;5.886;2022-08-21T07:48:36;14.93;;;4.70;;
36799;SDS011;22752;51.960;5.886;2022-08-21T07:51:04;16.67;;;5.60;;
36799;SDS011;22752;51.960;5.886;2022-08-21T07:53:33;11.93;;;4.20;;
36799;SDS011;22752;51.960;5.886;2022-08-21T07:56:00;11.40;;;4.85;;
36799;SDS011;22752;51.960;5.886;2022-08-21T07:58:26;12.32;;;4.38;;
36799;SDS011;22752;51.960;5.886;2022-08-21T08:00:51;11.02;;;4.68;;
36799;SDS011;22752;51.960;5.886;2022-08-21T08:03:17;15.07;;;5.50;;
36799;SDS011;22752;51.960;5.886;2022-08-21T08:05:43;12.32;;;4.63;;
36799;SDS011;22752;51.960;5.886;2022-08-21T08:08:08;15.93;;;5.30;;
36799;SDS011;22752;51.960;5.886;2022-08-21T08:10:34;13.82;;;5.03;;
36799;SDS011;22752;51.960;5.886;2022-08-21T08:13:01;12.13;;;4.15;;
36799;SDS011;22752;51.960;5.886;2022-08-21T08:15:28;14.65;;;4.40;;
36799;SDS011;22752;51.960;5.886;2022-08-21T08:17:54;12.32;;;4.57;;
36799;SDS011;22752;51.960;5.886;2022-08-21T08:20:20;14.63;;;5.03;;
36799;SDS011;22752;51.960;5.886;2022-08-21T08:22:47;13.82;;;5.93;;
36799;SDS011;22752;51.960;5.886;2022-08-21T08:25:14;12.90;;;4.38;;
36799;SDS011;22752;51.960;5.886;2022-08-21T08:27:40;18.23;;;5.95;;
36799;SDS011;22752;51.960;5.886;2022-08-21T08:30:06;16.40;;;5.05;;
36799;SDS011;22752;51.960;5.886;2022-08-21T08:32:34;14.57;;;5.35;;
36799;SDS011;22752;51.960;5.886;2022-08-21T08:35:00;16.45;;;4.53;;
36799;SDS011;22752;51.960;5.886;2022-08-21T08:37:25;14.43;;;4.90;;
36799;SDS011;22752;51.960;5.886;2022-08-21T08:39:51;15.50;;;4.55;;
36799;SDS011;22752;51.960;5.886;2022-08-21T08:44:53;11.20;;;4.32;;
36799;SDS011;22752;51.960;5.886;2022-08-21T08:47:26;10.93;;;4.00;;
36799;SDS011;22752;51.960;5.886;2022-08-21T08:57:41;14.88;;;4.93;;
36799;SDS011;22752;51.960;5.886;2022-08-21T09:00:10;12.68;;;4.00;;
36799;SDS011;22752;51.960;5.886;2022-08-21T09:02:38;8.93;;;3.38;;
36799;SDS011;22752;51.960;5.886;2022-08-21T09:05:06;15.20;;;4.70;;
36799;SDS011;22752;51.960;5.886;2022-08-21T09:10:38;9.82;;;3.95;;
36799;SDS011;22752;51.960;5.886;2022-08-21T09:13:21;11.50;;;3.92;;
36799;SDS011;22752;51.960;5.886;2022-08-21T09:16:04;12.82;;;3.47;;
36799;SDS011;22752;51.960;5.886;2022-08-21T09:23:55;13.32;;;3.40;;
36799;SDS011;22752;51.960;5.886;2022-08-21T09:26:26;12.10;;;3.28;;
36799;SDS011;22752;51.960;5.886;2022-08-21T09:34:05;12.80;;;3.45;;
36799;SDS011;22752;51.960;5.886;2022-08-21T09:36:44;14.15;;;3.97;;
36799;SDS011;22752;51.960;5.886;2022-08-21T09:39:12;11.82;;;3.38;;
36799;SDS011;22752;51.960;5.886;2022-08-21T09:41:54;13.68;;;3.70;;
36799;SDS011;22752;51.960;5.886;2022-08-21T09:44:28;8.68;;;2.97;;
36799;SDS011;22752;51.960;5.886;2022-08-21T09:46:55;11.45;;;3.10;;
36799;SDS011;22752;51.960;5.886;2022-08-21T09:49:32;12.75;;;3.67;;
36799;SDS011;22752;51.960;5.886;2022-08-21T09:52:00;11.77;;;2.72;;
36799;SDS011;22752;51.960;5.886;2022-08-21T09:54:32;15.52;;;3.47;;
36799;SDS011;22752;51.960;5.886;2022-08-21T09:59:52;14.40;;;2.55;;
36799;SDS011;22752;51.960;5.886;2022-08-21T10:05:03;18.08;;;3.15;;
36799;SDS011;22752;51.960;5.886;2022-08-21T10:07:36;6.78;;;2.50;;
36799;SDS011;22752;51.960;5.886;2022-08-21T10:15:22;10.30;;;3.05;;
36799;SDS011;22752;51.960;5.886;2022-08-21T10:21:01;9.07;;;2.63;;
36799;SDS011;22752;51.960;5.886;2022-08-21T10:40:04;7.88;;;2.05;;
36799;SDS011;22752;51.960;5.886;2022-08-21T10:45:49;8.23;;;2.20;;
36799;SDS011;22752;51.960;5.886;2022-08-21T10:51:13;7.28;;;2.22;;
36799;SDS011;22752;51.960;5.886;2022-08-21T10:56:24;8.35;;;2.67;;
36799;SDS011;22752;51.960;5.886;2022-08-21T10:59:02;11.23;;;2.97;;
36799;SDS011;22752;51.960;5.886;2022-08-21T11:07:02;14.10;;;3.22;;
36799;SDS011;22752;51.960;5.886;2022-08-21T11:09:32;9.07;;;2.63;;
36799;SDS011;22752;51.960;5.886;2022-08-21T11:11:59;9.02;;;2.20;;
36799;SDS011;22752;51.960;5.886;2022-08-21T11:14:47;7.20;;;2.40;;
36799;SDS011;22752;51.960;5.886;2022-08-21T11:17:30;9.30;;;2.40;;
36799;SDS011;22752;51.960;5.886;2022-08-21T11:20:03;8.02;;;2.20;;
36799;SDS011;22752;51.960;5.886;2022-08-21T11:22:38;5.10;;;1.65;;
36799;SDS011;22752;51.960;5.886;2022-08-21T11:25:13;5.53;;;1.88;;
36799;SDS011;22752;51.960;5.886;2022-08-21T11:30:30;5.43;;;1.80;;
36799;SDS011;22752;51.960;5.886;2022-08-21T11:33:08;5.85;;;2.10;;
36799;SDS011;22752;51.960;5.886;2022-08-21T11:35:57;11.52;;;2.35;;
36799;SDS011;22752;51.960;5.886;2022-08-21T11:38:42;8.43;;;2.20;;
36799;SDS011;22752;51.960;5.886;2022-08-21T11:52:38;8.57;;;2.30;;
36799;SDS011;22752;51.960;5.886;2022-08-21T11:55:12;6.55;;;1.92;;
36799;SDS011;22752;51.960;5.886;2022-08-21T11:57:55;6.72;;;2.00;;
36799;SDS011;22752;51.960;5.886;2022-08-21T12:00:55;7.20;;;2.15;;
36799;SDS011;22752;51.960;5.886;2022-08-21T12:03:33;7.53;;;1.83;;
36799;SDS011;22752;51.960;5.886;2022-08-21T12:06:07;6.75;;;2.20;;
36799;SDS011;22752;51.960;5.886;2022-08-21T12:08:40;8.60;;;2.30;;
36799;SDS011;22752;51.960;5.886;2022-08-21T12:13:57;10.35;;;1.75;;
36799;SDS011;22752;51.960;5.886;2022-08-21T12:16:33;5.47;;;1.60;;
36799;SDS011;22752;51.960;5.886;2022-08-21T12:19:04;7.75;;;1.90;;
36799;SDS011;22752;51.960;5.886;2022-08-21T12:21:32;6.78;;;2.03;;
36799;SDS011;22752;51.960;5.886;2022-08-21T12:26:54;5.45;;;2.03;;
36799;SDS011;22752;51.960;5.886;2022-08-21T12:31:58;5.10;;;1.85;;
36799;SDS011;22752;51.960;5.886;2022-08-21T12:34:35;6.45;;;2.08;;
36799;SDS011;22752;51.960;5.886;2022-08-21T12:39:40;4.72;;;1.98;;
36799;SDS011;22752;51.960;5.886;2022-08-21T12:42:15;6.78;;;2.10;;
36799;SDS011;22752;51.960;5.886;2022-08-21T12:44:51;6.22;;;2.10;;
36799;SDS011;22752;51.960;5.886;2022-08-21T12:50:39;8.02;;;2.08;;
36799;SDS011;22752;51.960;5.886;2022-08-21T12:53:07;5.72;;;2.10;;
36799;SDS011;22752;51.960;5.886;2022-08-21T12:55:47;5.30;;;1.85;;
36799;SDS011;22752;51.960;5.886;2022-08-21T12:58:17;7.70;;;1.80;;
36799;SDS011;22752;51.960;5.886;2022-08-21T13:00:47;5.72;;;1.45;;
36799;SDS011;22752;51.960;5.886;2022-08-21T13:03:16;6.28;;;1.63;;
36799;SDS011;22752;51.960;5.886;2022-08-21T13:05:42;5.13;;;1.40;;
36799;SDS011;22752;51.960;5.886;2022-08-21T13:08:10;5.25;;;1.77;;
36799;SDS011;22752;51.960;5.886;2022-08-21T13:10:37;6.45;;;1.73;;
36799;SDS011;22752;51.960;5.886;2022-08-21T13:13:07;4.15;;;1.63;;
36799;SDS011;22752;51.960;5.886;2022-08-21T13:15:44;6.50;;;1.70;;
36799;SDS011;22752;51.960;5.886;2022-08-21T13:18:18;6.50;;;1.63;;
36799;SDS011;22752;51.960;5.886;2022-08-21T13:20:47;5.82;;;1.65;;
36799;SDS011;22752;51.960;5.886;2022-08-21T13:23:22;2.80;;;1.58;;
36799;SDS011;22752;51.960;5.886;2022-08-21T13:25:51;5.45;;;1.50;;
36799;SDS011;22752;51.960;5.886;2022-08-21T13:28:17;2.88;;;1.40;;
36799;SDS011;22752;51.960;5.886;2022-08-21T13:30:44;4.40;;;1.45;;
36799;SDS011;22752;51.960;5.886;2022-08-21T13:33:12;6.90;;;1.75;;
36799;SDS011;22752;51.960;5.886;2022-08-21T13:38:12;5.40;;;1.70;;
36799;SDS011;22752;51.960;5.886;2022-08-21T13:40:40;5.28;;;1.50;;
36799;SDS011;22752;51.960;5.886;2022-08-21T13:43:16;5.60;;;1.67;;
36799;SDS011;22752;51.960;5.886;2022-08-21T13:45:47;6.15;;;1.98;;
36799;SDS011;22752;51.960;5.886;2022-08-21T13:48:15;7.22;;;1.98;;
36799;SDS011;22752;51.960;5.886;2022-08-21T13:50:41;6.78;;;1.70;;
36799;SDS011;22752;51.960;5.886;2022-08-21T13:53:19;5.40;;;1.67;;
36799;SDS011;22752;51.960;5.886;2022-08-21T13:55:48;5.05;;;1.55;;
36799;SDS011;22752;51.960;5.886;2022-08-21T13:58:23;5.13;;;1.67;;
36799;SDS011;22752;51.960;5.886;2022-08-21T14:00:55;4.82;;;1.60;;
36799;SDS011;22752;51.960;5.886;2022-08-21T14:03:38;4.63;;;1.77;;
36799;SDS011;22752;51.960;5.886;2022-08-21T14:06:11;4.20;;;1.50;;
36799;SDS011;22752;51.960;5.886;2022-08-21T14:08:53;3.75;;;1.50;;
36799;SDS011;22752;51.960;5.886;2022-08-21T14:11:33;3.97;;;1.33;;
36799;SDS011;22752;51.960;5.886;2022-08-21T14:14:02;5.72;;;1.98;;
36799;SDS011;22752;51.960;5.886;2022-08-21T14:19:40;5.75;;;1.73;;
36799;SDS011;22752;51.960;5.886;2022-08-21T14:25:15;5.97;;;1.70;;
36799;SDS011;22752;51.960;5.886;2022-08-21T14:32:57;4.13;;;1.67;;
36799;SDS011;22752;51.960;5.886;2022-08-21T14:35:23;6.85;;;2.50;;
36799;SDS011;22752;51.960;5.886;2022-08-21T14:37:50;6.25;;;2.25;;
36799;SDS011;22752;51.960;5.886;2022-08-21T14:40:17;6.50;;;1.63;;
36799;SDS011;22752;51.960;5.886;2022-08-21T14:42:44;8.40;;;1.88;;
36799;SDS011;22752;51.960;5.886;2022-08-21T14:45:15;6.53;;;1.90;;
36799;SDS011;22752;51.960;5.886;2022-08-21T14:47:42;3.80;;;1.80;;
36799;SDS011;22752;51.960;5.886;2022-08-21T14:50:10;6.07;;;1.80;;
36799;SDS011;22752;51.960;5.886;2022-08-21T14:52:37;6.07;;;2.13;;
36799;SDS011;22752;51.960;5.886;2022-08-21T14:55:04;8.00;;;2.00;;
36799;SDS011;22752;51.960;5.886;2022-08-21T14:57:31;6.90;;;1.75;;
36799;SDS011;22752;51.960;5.886;2022-08-21T14:59:57;4.45;;;1.60;;
36799;SDS011;22752;51.960;5.886;2022-08-21T15:02:24;7.28;;;1.90;;
36799;SDS011;22752;51.960;5.886;2022-08-21T15:04:50;5.65;;;2.42;;
36799;SDS011;22752;51.960;5.886;2022-08-21T15:07:15;8.07;;;2.45;;
36799;SDS011;22752;51.960;5.886;2022-08-21T15:09:41;5.20;;;1.92;;
36799;SDS011;22752;51.960;5.886;2022-08-21T15:12:07;6.57;;;1.85;;
36799;SDS011;22752;51.960;5.886;2022-08-21T15:14:33;6.70;;;1.80;;
36799;SDS011;22752;51.960;5.886;2022-08-21T15:17:03;5.57;;;1.85;;
36799;SDS011;22752;51.960;5.886;2022-08-21T15:19:30;3.92;;;1.73;;
36799;SDS011;22752;51.960;5.886;2022-08-21T15:21:56;4.80;;;1.80;;
36799;SDS011;22752;51.960;5.886;2022-08-21T15:24:22;5.65;;;1.65;;
36799;SDS011;22752;51.960;5.886;2022-08-21T15:26:47;3.95;;;1.30;;
36799;SDS011;22752;51.960;5.886;2022-08-21T15:29:14;5.90;;;1.67;;
36799;SDS011;22752;51.960;5.886;2022-08-21T15:31:53;5.68;;;1.50;;
36799;SDS011;22752;51.960;5.886;2022-08-21T15:34:21;4.75;;;1.60;;
36799;SDS011;22752;51.960;5.886;2022-08-21T15:36:48;5.05;;;1.40;;
36799;SDS011;22752;51.960;5.886;2022-08-21T15:39:14;5.43;;;1.60;;
36799;SDS011;22752;51.960;5.886;2022-08-21T15:41:40;3.97;;;1.85;;
36799;SDS011;22752;51.960;5.886;2022-08-21T15:44:06;5.15;;;1.90;;
36799;SDS011;22752;51.960;5.886;2022-08-21T15:46:33;4.93;;;1.80;;
36799;SDS011;22752;51.960;5.886;2022-08-21T15:48:59;8.38;;;2.30;;
36799;SDS011;22752;51.960;5.886;2022-08-21T15:51:25;5.07;;;1.63;;
36799;SDS011;22752;51.960;5.886;2022-08-21T15:53:50;5.75;;;2.10;;
36799;SDS011;22752;51.960;5.886;2022-08-21T15:56:23;7.32;;;1.95;;
36799;SDS011;22752;51.960;5.886;2022-08-21T15:58:51;6.30;;;2.05;;
36799;SDS011;22752;51.960;5.886;2022-08-21T16:01:22;5.50;;;1.98;;
36799;SDS011;22752;51.960;5.886;2022-08-21T16:03:49;5.93;;;1.80;;
36799;SDS011;22752;51.960;5.886;2022-08-21T16:06:17;6.00;;;2.28;;
36799;SDS011;22752;51.960;5.886;2022-08-21T16:08:43;8.32;;;1.90;;
36799;SDS011;22752;51.960;5.886;2022-08-21T16:11:09;7.50;;;2.00;;
36799;SDS011;22752;51.960;5.886;2022-08-21T16:13:39;7.15;;;2.10;;
36799;SDS011;22752;51.960;5.886;2022-08-21T16:16:07;5.50;;;1.80;;
36799;SDS011;22752;51.960;5.886;2022-08-21T16:18:34;4.63;;;1.65;;
36799;SDS011;22752;51.960;5.886;2022-08-21T16:21:00;7.22;;;2.70;;
36799;SDS011;22752;51.960;5.886;2022-08-21T16:23:26;6.95;;;1.80;;
36799;SDS011;22752;51.960;5.886;2022-08-21T16:25:51;7.68;;;2.30;;
36799;SDS011;22752;51.960;5.886;2022-08-21T16:28:17;6.22;;;2.00;;
36799;SDS011;22752;51.960;5.886;2022-08-21T16:30:46;5.13;;;1.98;;
36799;SDS011;22752;51.960;5.886;2022-08-21T16:33:35;4.35;;;1.65;;
36799;SDS011;22752;51.960;5.886;2022-08-21T16:36:02;4.43;;;1.65;;
36799;SDS011;22752;51.960;5.886;2022-08-21T16:38:29;5.63;;;1.80;;
36799;SDS011;22752;51.960;5.886;2022-08-21T16:40:56;3.42;;;1.67;;
36799;SDS011;22752;51.960;5.886;2022-08-21T16:43:24;4.43;;;1.70;;
36799;SDS011;22752;51.960;5.886;2022-08-21T16:45:51;6.35;;;2.10;;
36799;SDS011;22752;51.960;5.886;2022-08-21T16:48:17;3.65;;;1.90;;